Bacolod, Philippines
Current Conditions -  °F | °C
As of 5:00 PM on Monday 20 Oct 2014 (Local Time) from RPVM Reporting Station
Scattered Clouds Scattered Clouds  
Wind Chill: 86°   Ceiling: Unl
Heat Index: 95°   Visibility: 6mi
Dew Point: 75°   Wind: 2mph
Humidity: 70%   Direction: NA
Pressure: 29.8"   Gusts: NA
Location:  10.63°N, 122.97°E
Report Text: RPVM 200900Z VRB02KT 9999 FEW018CB SCT300 30/24 Q1009 CB N NEAND S A2982
Loading
Personal Weather Stations






























Interactive Weather Map
Tropical Storm Tracking
New forecast layout! Learn more

10-Day Weather Forecast

Advertisements
Track Severe Weather on mobile